sensor_id;sensor_type;location;lat;lon;timestamp;P1;durP1;ratioP1;P2;durP2;ratioP2
6424;SDS011;12193;42.642;23.384;2023-03-12T00:01:49;4.10;;;2.40;;
6424;SDS011;12193;42.642;23.384;2023-03-12T00:04:19;7.00;;;2.40;;
6424;SDS011;12193;42.642;23.384;2023-03-12T00:06:51;6.93;;;2.83;;
6424;SDS011;12193;42.642;23.384;2023-03-12T00:09:20;5.67;;;2.97;;
6424;SDS011;12193;42.642;23.384;2023-03-12T00:11:50;3.93;;;2.73;;
6424;SDS011;12193;42.642;23.384;2023-03-12T00:14:19;5.67;;;3.40;;
6424;SDS011;12193;42.642;23.384;2023-03-12T00:16:48;5.97;;;3.90;;
6424;SDS011;12193;42.642;23.384;2023-03-12T00:19:18;4.33;;;3.17;;
6424;SDS011;12193;42.642;23.384;2023-03-12T00:21:50;12.53;;;4.20;;
6424;SDS011;12193;42.642;23.384;2023-03-12T00:24:19;5.47;;;3.80;;
6424;SDS011;12193;42.642;23.384;2023-03-12T00:26:49;7.30;;;4.33;;
6424;SDS011;12193;42.642;23.384;2023-03-12T00:29:18;9.23;;;3.83;;
6424;SDS011;12193;42.642;23.384;2023-03-12T00:31:47;9.13;;;3.97;;
6424;SDS011;12193;42.642;23.384;2023-03-12T00:34:17;8.67;;;4.53;;
6424;SDS011;12193;42.642;23.384;2023-03-12T00:36:46;11.90;;;4.20;;
6424;SDS011;12193;42.642;23.384;2023-03-12T00:39:18;6.37;;;4.10;;
6424;SDS011;12193;42.642;23.384;2023-03-12T00:41:47;6.50;;;3.70;;
6424;SDS011;12193;42.642;23.384;2023-03-12T00:44:17;6.43;;;3.90;;
6424;SDS011;12193;42.642;23.384;2023-03-12T00:46:46;6.97;;;3.97;;
6424;SDS011;12193;42.642;23.384;2023-03-12T00:49:15;7.13;;;4.10;;
6424;SDS011;12193;42.642;23.384;2023-03-12T00:51:45;6.70;;;4.17;;
6424;SDS011;12193;42.642;23.384;2023-03-12T00:54:14;9.93;;;4.00;;
6424;SDS011;12193;42.642;23.384;2023-03-12T00:56:46;7.80;;;4.00;;
6424;SDS011;12193;42.642;23.384;2023-03-12T00:59:16;8.03;;;4.20;;
6424;SDS011;12193;42.642;23.384;2023-03-12T01:01:45;6.93;;;3.97;;
6424;SDS011;12193;42.642;23.384;2023-03-12T01:04:15;7.00;;;4.40;;
6424;SDS011;12193;42.642;23.384;2023-03-12T01:06:44;7.47;;;4.37;;
6424;SDS011;12193;42.642;23.384;2023-03-12T04:08:34;3.17;;;2.50;;
6424;SDS011;12193;42.642;23.384;2023-03-12T04:11:05;3.10;;;2.30;;
6424;SDS011;12193;42.642;23.384;2023-03-12T04:13:36;3.93;;;2.40;;
6424;SDS011;12193;42.642;23.384;2023-03-12T04:16:06;2.67;;;2.20;;
6424;SDS011;12193;42.642;23.384;2023-03-12T04:18:36;3.60;;;2.10;;
6424;SDS011;12193;42.642;23.384;2023-03-12T04:21:06;4.00;;;2.30;;
6424;SDS011;12193;42.642;23.384;2023-03-12T04:23:40;4.57;;;2.10;;
6424;SDS011;12193;42.642;23.384;2023-03-12T04:26:10;3.23;;;2.10;;
6424;SDS011;12193;42.642;23.384;2023-03-12T04:28:39;4.20;;;2.30;;
6424;SDS011;12193;42.642;23.384;2023-03-12T04:31:09;2.47;;;2.00;;
6424;SDS011;12193;42.642;23.384;2023-03-12T04:33:39;4.67;;;2.50;;
6424;SDS011;12193;42.642;23.384;2023-03-12T04:36:09;2.83;;;1.90;;
6424;SDS011;12193;42.642;23.384;2023-03-12T04:38:43;4.83;;;2.00;;
6424;SDS011;12193;42.642;23.384;2023-03-12T04:41:13;3.23;;;2.13;;
6424;SDS011;12193;42.642;23.384;2023-03-12T04:43:43;5.50;;;2.23;;
6424;SDS011;12193;42.642;23.384;2023-03-12T04:46:13;5.37;;;2.20;;
6424;SDS011;12193;42.642;23.384;2023-03-12T04:48:43;6.07;;;2.53;;
6424;SDS011;12193;42.642;23.384;2023-03-12T04:51:12;4.47;;;2.70;;
6424;SDS011;12193;42.642;23.384;2023-03-12T04:53:44;5.87;;;2.20;;
6424;SDS011;12193;42.642;23.384;2023-03-12T04:56:14;3.60;;;2.20;;
6424;SDS011;12193;42.642;23.384;2023-03-12T04:58:43;5.20;;;2.33;;
6424;SDS011;12193;42.642;23.384;2023-03-12T05:01:18;4.30;;;2.13;;
6424;SDS011;12193;42.642;23.384;2023-03-12T05:03:51;3.43;;;2.30;;
6424;SDS011;12193;42.642;23.384;2023-03-12T05:06:20;2.80;;;1.90;;
6424;SDS011;12193;42.642;23.384;2023-03-12T05:08:53;3.40;;;2.27;;
6424;SDS011;12193;42.642;23.384;2023-03-12T05:11:23;2.63;;;2.00;;
6424;SDS011;12193;42.642;23.384;2023-03-12T05:13:52;2.97;;;1.87;;
6424;SDS011;12193;42.642;23.384;2023-03-12T05:16:22;1.87;;;1.63;;
6424;SDS011;12193;42.642;23.384;2023-03-12T05:18:52;2.73;;;2.00;;
6424;SDS011;12193;42.642;23.384;2023-03-12T05:21:21;3.47;;;2.13;;
6424;SDS011;12193;42.642;23.384;2023-03-12T05:23:53;3.13;;;2.17;;
6424;SDS011;12193;42.642;23.384;2023-03-12T05:26:24;2.17;;;1.70;;
6424;SDS011;12193;42.642;23.384;2023-03-12T05:28:56;4.40;;;1.87;;
6424;SDS011;12193;42.642;23.384;2023-03-12T05:31:26;2.73;;;1.80;;
6424;SDS011;12193;42.642;23.384;2023-03-12T05:33:57;2.77;;;1.80;;
6424;SDS011;12193;42.642;23.384;2023-03-12T05:36:27;3.27;;;2.20;;
6424;SDS011;12193;42.642;23.384;2023-03-12T05:38:59;3.87;;;1.93;;
6424;SDS011;12193;42.642;23.384;2023-03-12T05:41:29;2.57;;;1.73;;
6424;SDS011;12193;42.642;23.384;2023-03-12T05:43:58;4.63;;;1.83;;
6424;SDS011;12193;42.642;23.384;2023-03-12T05:46:28;4.13;;;2.13;;
6424;SDS011;12193;42.642;23.384;2023-03-12T05:48:57;3.17;;;2.03;;
6424;SDS011;12193;42.642;23.384;2023-03-12T05:51:26;6.13;;;2.00;;
6424;SDS011;12193;42.642;23.384;2023-03-12T05:53:56;3.37;;;2.00;;
6424;SDS011;12193;42.642;23.384;2023-03-12T05:56:28;3.77;;;2.50;;
6424;SDS011;12193;42.642;23.384;2023-03-12T05:58:58;4.07;;;2.07;;
6424;SDS011;12193;42.642;23.384;2023-03-12T06:01:28;2.87;;;1.83;;
6424;SDS011;12193;42.642;23.384;2023-03-12T06:03:58;3.70;;;2.10;;
6424;SDS011;12193;42.642;23.384;2023-03-12T06:06:28;4.00;;;2.20;;
6424;SDS011;12193;42.642;23.384;2023-03-12T06:09:01;2.63;;;1.93;;
6424;SDS011;12193;42.642;23.384;2023-03-12T06:11:32;3.00;;;2.30;;
6424;SDS011;12193;42.642;23.384;2023-03-12T06:14:01;3.00;;;2.10;;
6424;SDS011;12193;42.642;23.384;2023-03-12T06:16:31;3.30;;;2.43;;
6424;SDS011;12193;42.642;23.384;2023-03-12T06:19:00;3.97;;;2.50;;
6424;SDS011;12193;42.642;23.384;2023-03-12T06:21:31;5.20;;;2.50;;
6424;SDS011;12193;42.642;23.384;2023-03-12T06:24:04;3.00;;;2.30;;
6424;SDS011;12193;42.642;23.384;2023-03-12T06:26:34;3.23;;;2.27;;
6424;SDS011;12193;42.642;23.384;2023-03-12T06:29:04;4.30;;;2.37;;
6424;SDS011;12193;42.642;23.384;2023-03-12T06:31:34;3.57;;;2.20;;
6424;SDS011;12193;42.642;23.384;2023-03-12T06:34:04;3.50;;;2.40;;
6424;SDS011;12193;42.642;23.384;2023-03-12T06:36:35;3.30;;;2.23;;
6424;SDS011;12193;42.642;23.384;2023-03-12T06:39:07;4.43;;;2.50;;
6424;SDS011;12193;42.642;23.384;2023-03-12T06:41:36;3.63;;;2.50;;
6424;SDS011;12193;42.642;23.384;2023-03-12T06:44:06;2.83;;;2.30;;
6424;SDS011;12193;42.642;23.384;2023-03-12T06:46:36;3.20;;;2.50;;
6424;SDS011;12193;42.642;23.384;2023-03-12T06:49:05;3.60;;;2.70;;
6424;SDS011;12193;42.642;23.384;2023-03-12T06:51:35;4.70;;;2.73;;
6424;SDS011;12193;42.642;23.384;2023-03-12T06:54:07;5.77;;;2.57;;
6424;SDS011;12193;42.642;23.384;2023-03-12T06:56:36;5.23;;;2.53;;
6424;SDS011;12193;42.642;23.384;2023-03-12T06:59:06;3.17;;;2.47;;
6424;SDS011;12193;42.642;23.384;2023-03-12T07:01:35;4.80;;;2.83;;
6424;SDS011;12193;42.642;23.384;2023-03-12T07:04:05;3.80;;;2.67;;
6424;SDS011;12193;42.642;23.384;2023-03-12T07:06:35;4.90;;;3.03;;
6424;SDS011;12193;42.642;23.384;2023-03-12T07:09:06;4.60;;;2.63;;
6424;SDS011;12193;42.642;23.384;2023-03-12T07:11:36;5.40;;;2.57;;
6424;SDS011;12193;42.642;23.384;2023-03-12T07:14:05;5.10;;;2.70;;
6424;SDS011;12193;42.642;23.384;2023-03-12T07:16:34;4.53;;;2.80;;
6424;SDS011;12193;42.642;23.384;2023-03-12T07:19:04;8.57;;;3.17;;
6424;SDS011;12193;42.642;23.384;2023-03-12T07:21:33;3.03;;;2.50;;
6424;SDS011;12193;42.642;23.384;2023-03-12T07:24:03;3.37;;;2.43;;
6424;SDS011;12193;42.642;23.384;2023-03-12T07:26:37;5.70;;;2.30;;
6424;SDS011;12193;42.642;23.384;2023-03-12T07:29:06;4.57;;;2.60;;
6424;SDS011;12193;42.642;23.384;2023-03-12T07:31:35;5.73;;;2.70;;
6424;SDS011;12193;42.642;23.384;2023-03-12T07:34:05;2.57;;;2.20;;
6424;SDS011;12193;42.642;23.384;2023-03-12T07:36:34;4.27;;;2.70;;
6424;SDS011;12193;42.642;23.384;2023-03-12T07:39:03;4.33;;;2.90;;
6424;SDS011;12193;42.642;23.384;2023-03-12T07:41:36;3.63;;;2.50;;
6424;SDS011;12193;42.642;23.384;2023-03-12T07:44:05;5.60;;;2.53;;
6424;SDS011;12193;42.642;23.384;2023-03-12T07:46:35;3.47;;;2.67;;
6424;SDS011;12193;42.642;23.384;2023-03-12T07:49:04;4.33;;;2.70;;
6424;SDS011;12193;42.642;23.384;2023-03-12T07:51:34;2.87;;;2.30;;
6424;SDS011;12193;42.642;23.384;2023-03-12T07:54:03;3.07;;;2.30;;
6424;SDS011;12193;42.642;23.384;2023-03-12T07:56:32;3.77;;;2.50;;
6424;SDS011;12193;42.642;23.384;2023-03-12T07:59:04;4.57;;;2.30;;
6424;SDS011;12193;42.642;23.384;2023-03-12T08:01:34;8.03;;;2.30;;
6424;SDS011;12193;42.642;23.384;2023-03-12T08:04:03;4.20;;;2.57;;
6424;SDS011;12193;42.642;23.384;2023-03-12T08:06:32;4.17;;;2.70;;
6424;SDS011;12193;42.642;23.384;2023-03-12T08:09:03;4.93;;;2.10;;
6424;SDS011;12193;42.642;23.384;2023-03-12T08:11:33;4.63;;;2.50;;
6424;SDS011;12193;42.642;23.384;2023-03-12T08:14:05;5.27;;;2.23;;
6424;SDS011;12193;42.642;23.384;2023-03-12T08:16:34;3.57;;;2.47;;
6424;SDS011;12193;42.642;23.384;2023-03-12T08:19:03;3.07;;;2.20;;
6424;SDS011;12193;42.642;23.384;2023-03-12T08:21:33;6.57;;;2.77;;
6424;SDS011;12193;42.642;23.384;2023-03-12T08:24:02;4.43;;;2.53;;
6424;SDS011;12193;42.642;23.384;2023-03-12T08:26:33;4.73;;;2.53;;
6424;SDS011;12193;42.642;23.384;2023-03-12T08:29:04;3.63;;;2.53;;
6424;SDS011;12193;42.642;23.384;2023-03-12T08:31:34;3.37;;;2.43;;
6424;SDS011;12193;42.642;23.384;2023-03-12T08:34:03;3.47;;;2.43;;
6424;SDS011;12193;42.642;23.384;2023-03-12T08:36:32;4.27;;;2.43;;
6424;SDS011;12193;42.642;23.384;2023-03-12T08:39:02;3.73;;;2.60;;
6424;SDS011;12193;42.642;23.384;2023-03-12T08:41:32;2.93;;;2.27;;
6424;SDS011;12193;42.642;23.384;2023-03-12T08:44:02;3.23;;;2.50;;
6424;SDS011;12193;42.642;23.384;2023-03-12T08:46:33;3.67;;;2.47;;
6424;SDS011;12193;42.642;23.384;2023-03-12T08:49:03;7.50;;;2.70;;
6424;SDS011;12193;42.642;23.384;2023-03-12T08:51:32;4.87;;;2.70;;
6424;SDS011;12193;42.642;23.384;2023-03-12T08:54:01;4.37;;;2.50;;
6424;SDS011;12193;42.642;23.384;2023-03-12T08:56:31;5.70;;;2.43;;
6424;SDS011;12193;42.642;23.384;2023-03-12T08:59:01;2.83;;;2.20;;
6424;SDS011;12193;42.642;23.384;2023-03-12T09:01:33;2.87;;;2.53;;
6424;SDS011;12193;42.642;23.384;2023-03-12T09:04:03;5.40;;;2.30;;
6424;SDS011;12193;42.642;23.384;2023-03-12T09:06:33;2.93;;;1.97;;
6424;SDS011;12193;42.642;23.384;2023-03-12T09:09:03;3.80;;;2.50;;
6424;SDS011;12193;42.642;23.384;2023-03-12T09:11:34;3.70;;;2.57;;
6424;SDS011;12193;42.642;23.384;2023-03-12T09:14:04;3.03;;;2.40;;
6424;SDS011;12193;42.642;23.384;2023-03-12T09:16:37;4.20;;;2.77;;
6424;SDS011;12193;42.642;23.384;2023-03-12T09:19:07;4.47;;;2.60;;
6424;SDS011;12193;42.642;23.384;2023-03-12T09:21:36;3.93;;;2.50;;
6424;SDS011;12193;42.642;23.384;2023-03-12T09:24:05;5.43;;;2.60;;
6424;SDS011;12193;42.642;23.384;2023-03-12T09:26:35;5.33;;;2.70;;
6424;SDS011;12193;42.642;23.384;2023-03-12T09:29:04;4.57;;;2.43;;
6424;SDS011;12193;42.642;23.384;2023-03-12T09:31:34;4.83;;;2.50;;
6424;SDS011;12193;42.642;23.384;2023-03-12T09:34:06;6.10;;;2.83;;
6424;SDS011;12193;42.642;23.384;2023-03-12T09:36:35;7.03;;;2.77;;
6424;SDS011;12193;42.642;23.384;2023-03-12T09:39:05;3.70;;;2.50;;
6424;SDS011;12193;42.642;23.384;2023-03-12T09:41:35;3.57;;;2.67;;
6424;SDS011;12193;42.642;23.384;2023-03-12T09:44:08;3.60;;;2.60;;
6424;SDS011;12193;42.642;23.384;2023-03-12T09:46:49;3.10;;;2.27;;
6424;SDS011;12193;42.642;23.384;2023-03-12T09:49:22;6.43;;;2.60;;
6424;SDS011;12193;42.642;23.384;2023-03-12T09:52:00;3.93;;;2.50;;
6424;SDS011;12193;42.642;23.384;2023-03-12T09:54:32;5.07;;;2.37;;
6424;SDS011;12193;42.642;23.384;2023-03-12T09:57:08;3.67;;;2.67;;
6424;SDS011;12193;42.642;23.384;2023-03-12T09:59:40;3.80;;;2.70;;
6424;SDS011;12193;42.642;23.384;2023-03-12T10:02:19;6.83;;;2.60;;
6424;SDS011;12193;42.642;23.384;2023-03-12T10:05:08;2.97;;;2.57;;
6424;SDS011;12193;42.642;23.384;2023-03-12T10:07:45;3.50;;;2.30;;
6424;SDS011;12193;42.642;23.384;2023-03-12T10:10:26;3.63;;;2.50;;
6424;SDS011;12193;42.642;23.384;2023-03-12T10:13:08;2.97;;;2.37;;
6424;SDS011;12193;42.642;23.384;2023-03-12T10:15:52;2.53;;;2.23;;
6424;SDS011;12193;42.642;23.384;2023-03-12T10:18:35;2.93;;;2.30;;
6424;SDS011;12193;42.642;23.384;2023-03-12T10:21:17;3.80;;;2.50;;
6424;SDS011;12193;42.642;23.384;2023-03-12T10:23:56;4.30;;;2.80;;
6424;SDS011;12193;42.642;23.384;2023-03-12T10:26:42;3.30;;;2.70;;
6424;SDS011;12193;42.642;23.384;2023-03-12T10:29:15;2.83;;;2.20;;
6424;SDS011;12193;42.642;23.384;2023-03-12T10:31:50;4.73;;;2.80;;
6424;SDS011;12193;42.642;23.384;2023-03-12T10:34:27;3.33;;;2.60;;
6424;SDS011;12193;42.642;23.384;2023-03-12T10:37:04;5.93;;;2.80;;
6424;SDS011;12193;42.642;23.384;2023-03-12T10:39:42;3.47;;;2.20;;
6424;SDS011;12193;42.642;23.384;2023-03-12T10:42:13;3.17;;;2.33;;
6424;SDS011;12193;42.642;23.384;2023-03-12T10:44:45;3.90;;;2.20;;
6424;SDS011;12193;42.642;23.384;2023-03-12T10:47:26;4.10;;;2.47;;
6424;SDS011;12193;42.642;23.384;2023-03-12T10:50:17;5.17;;;2.40;;
6424;SDS011;12193;42.642;23.384;2023-03-12T10:52:48;3.37;;;2.00;;
6424;SDS011;12193;42.642;23.384;2023-03-12T10:55:20;3.80;;;2.50;;
6424;SDS011;12193;42.642;23.384;2023-03-12T10:57:51;3.90;;;2.53;;
6424;SDS011;12193;42.642;23.384;2023-03-12T11:00:22;2.70;;;2.37;;
6424;SDS011;12193;42.642;23.384;2023-03-12T11:02:57;3.20;;;2.20;;
6424;SDS011;12193;42.642;23.384;2023-03-12T11:05:32;3.63;;;2.67;;
6424;SDS011;12193;42.642;23.384;2023-03-12T11:08:03;3.93;;;2.33;;
6424;SDS011;12193;42.642;23.384;2023-03-12T11:10:49;3.23;;;2.37;;
6424;SDS011;12193;42.642;23.384;2023-03-12T11:13:22;4.30;;;2.43;;
6424;SDS011;12193;42.642;23.384;2023-03-12T11:15:57;3.80;;;2.30;;
6424;SDS011;12193;42.642;23.384;2023-03-12T11:18:31;3.73;;;2.30;;
6424;SDS011;12193;42.642;23.384;2023-03-12T11:21:18;4.30;;;2.30;;
6424;SDS011;12193;42.642;23.384;2023-03-12T11:24:02;3.17;;;2.37;;
6424;SDS011;12193;42.642;23.384;2023-03-12T11:26:36;4.10;;;2.30;;
6424;SDS011;12193;42.642;23.384;2023-03-12T11:29:15;3.37;;;2.30;;
6424;SDS011;12193;42.642;23.384;2023-03-12T11:31:54;4.00;;;2.47;;
6424;SDS011;12193;42.642;23.384;2023-03-12T11:34:30;4.00;;;2.30;;
6424;SDS011;12193;42.642;23.384;2023-03-12T11:37:06;7.07;;;2.30;;
6424;SDS011;12193;42.642;23.384;2023-03-12T11:39:47;3.03;;;2.03;;
6424;SDS011;12193;42.642;23.384;2023-03-12T11:42:29;4.17;;;2.20;;
6424;SDS011;12193;42.642;23.384;2023-03-12T11:45:13;2.83;;;2.23;;
6424;SDS011;12193;42.642;23.384;2023-03-12T11:47:54;2.37;;;2.10;;
6424;SDS011;12193;42.642;23.384;2023-03-12T11:50:36;3.77;;;2.30;;
6424;SDS011;12193;42.642;23.384;2023-03-12T11:53:26;3.20;;;2.10;;
6424;SDS011;12193;42.642;23.384;2023-03-12T11:56:08;3.03;;;2.20;;
6424;SDS011;12193;42.642;23.384;2023-03-12T11:58:52;2.80;;;2.03;;
6424;SDS011;12193;42.642;23.384;2023-03-12T12:01:32;4.47;;;2.47;;
6424;SDS011;12193;42.642;23.384;2023-03-12T12:04:17;2.93;;;2.40;;
6424;SDS011;12193;42.642;23.384;2023-03-12T12:07:02;3.07;;;2.23;;
6424;SDS011;12193;42.642;23.384;2023-03-12T12:09:41;3.43;;;2.37;;
6424;SDS011;12193;42.642;23.384;2023-03-12T12:12:33;2.80;;;2.13;;
6424;SDS011;12193;42.642;23.384;2023-03-12T12:15:18;2.57;;;2.23;;
6424;SDS011;12193;42.642;23.384;2023-03-12T12:17:57;3.10;;;2.23;;
6424;SDS011;12193;42.642;23.384;2023-03-12T12:20:36;3.77;;;2.37;;
6424;SDS011;12193;42.642;23.384;2023-03-12T12:23:15;2.93;;;2.23;;
6424;SDS011;12193;42.642;23.384;2023-03-12T12:25:53;3.87;;;2.20;;
6424;SDS011;12193;42.642;23.384;2023-03-12T12:28:35;4.03;;;2.40;;
6424;SDS011;12193;42.642;23.384;2023-03-12T12:31:26;4.60;;;2.37;;
6424;SDS011;12193;42.642;23.384;2023-03-12T12:34:11;5.83;;;2.40;;
6424;SDS011;12193;42.642;23.384;2023-03-12T12:36:53;4.10;;;2.57;;
6424;SDS011;12193;42.642;23.384;2023-03-12T12:39:31;3.33;;;2.37;;
6424;SDS011;12193;42.642;23.384;2023-03-12T12:42:08;4.30;;;2.30;;
6424;SDS011;12193;42.642;23.384;2023-03-12T12:44:43;3.57;;;2.50;;
6424;SDS011;12193;42.642;23.384;2023-03-12T12:47:17;3.07;;;2.40;;
6424;SDS011;12193;42.642;23.384;2023-03-12T12:49:49;2.70;;;2.20;;
6424;SDS011;12193;42.642;23.384;2023-03-12T12:52:22;2.73;;;2.30;;
6424;SDS011;12193;42.642;23.384;2023-03-12T12:54:54;4.17;;;2.47;;
6424;SDS011;12193;42.642;23.384;2023-03-12T12:57:32;2.93;;;2.33;;
6424;SDS011;12193;42.642;23.384;2023-03-12T13:00:13;4.90;;;2.70;;
6424;SDS011;12193;42.642;23.384;2023-03-12T13:02:51;4.00;;;3.00;;
6424;SDS011;12193;42.642;23.384;2023-03-12T13:05:25;3.20;;;2.50;;
6424;SDS011;12193;42.642;23.384;2023-03-12T13:07:57;3.37;;;2.37;;
6424;SDS011;12193;42.642;23.384;2023-03-12T13:10:39;3.67;;;2.40;;
6424;SDS011;12193;42.642;23.384;2023-03-12T13:13:17;2.57;;;2.07;;
6424;SDS011;12193;42.642;23.384;2023-03-12T13:15:48;4.40;;;2.40;;
6424;SDS011;12193;42.642;23.384;2023-03-12T13:18:20;3.60;;;2.47;;
6424;SDS011;12193;42.642;23.384;2023-03-12T13:23:48;5.27;;;2.57;;
6424;SDS011;12193;42.642;23.384;2023-03-12T13:26:25;3.33;;;2.33;;
6424;SDS011;12193;42.642;23.384;2023-03-12T13:29:10;3.63;;;2.60;;
6424;SDS011;12193;42.642;23.384;2023-03-12T13:31:46;3.63;;;2.60;;
6424;SDS011;12193;42.642;23.384;2023-03-12T13:34:40;3.83;;;2.53;;
6424;SDS011;12193;42.642;23.384;2023-03-12T13:37:28;3.60;;;2.57;;
6424;SDS011;12193;42.642;23.384;2023-03-12T13:40:32;3.43;;;2.43;;
6424;SDS011;12193;42.642;23.384;2023-03-12T13:43:08;3.23;;;2.50;;
6424;SDS011;12193;42.642;23.384;2023-03-12T13:45:53;3.03;;;2.17;;
6424;SDS011;12193;42.642;23.384;2023-03-12T13:48:25;3.87;;;2.47;;
6424;SDS011;12193;42.642;23.384;2023-03-12T13:50:56;4.77;;;2.23;;
6424;SDS011;12193;42.642;23.384;2023-03-12T13:53:31;3.57;;;2.53;;
6424;SDS011;12193;42.642;23.384;2023-03-12T13:56:05;2.97;;;2.50;;
6424;SDS011;12193;42.642;23.384;2023-03-12T13:58:39;3.47;;;2.40;;
6424;SDS011;12193;42.642;23.384;2023-03-12T14:01:15;3.73;;;2.60;;
6424;SDS011;12193;42.642;23.384;2023-03-12T14:03:48;3.00;;;2.20;;
6424;SDS011;12193;42.642;23.384;2023-03-12T14:06:23;3.00;;;2.27;;
6424;SDS011;12193;42.642;23.384;2023-03-12T14:09:01;4.60;;;2.73;;
6424;SDS011;12193;42.642;23.384;2023-03-12T14:11:47;3.50;;;2.43;;
6424;SDS011;12193;42.642;23.384;2023-03-12T14:14:31;3.53;;;2.40;;
6424;SDS011;12193;42.642;23.384;2023-03-12T14:17:28;3.77;;;2.23;;
6424;SDS011;12193;42.642;23.384;2023-03-12T14:20:00;4.37;;;2.40;;
6424;SDS011;12193;42.642;23.384;2023-03-12T14:22:32;3.03;;;2.50;;
6424;SDS011;12193;42.642;23.384;2023-03-12T14:25:10;6.00;;;2.30;;
6424;SDS011;12193;42.642;23.384;2023-03-12T14:27:43;3.00;;;2.23;;
6424;SDS011;12193;42.642;23.384;2023-03-12T14:30:15;4.23;;;2.60;;
6424;SDS011;12193;42.642;23.384;2023-03-12T14:32:54;4.17;;;2.40;;
6424;SDS011;12193;42.642;23.384;2023-03-12T14:35:26;3.03;;;2.50;;
6424;SDS011;12193;42.642;23.384;2023-03-12T14:38:01;3.43;;;2.37;;
6424;SDS011;12193;42.642;23.384;2023-03-12T14:40:37;2.77;;;2.33;;
6424;SDS011;12193;42.642;23.384;2023-03-12T14:43:21;4.97;;;2.70;;
6424;SDS011;12193;42.642;23.384;2023-03-12T14:45:54;3.33;;;2.60;;
6424;SDS011;12193;42.642;23.384;2023-03-12T14:48:29;3.47;;;2.50;;
6424;SDS011;12193;42.642;23.384;2023-03-12T14:51:00;3.20;;;2.23;;
6424;SDS011;12193;42.642;23.384;2023-03-12T14:53:32;4.73;;;2.70;;
6424;SDS011;12193;42.642;23.384;2023-03-12T14:56:04;3.97;;;2.70;;
6424;SDS011;12193;42.642;23.384;2023-03-12T14:58:35;3.10;;;2.40;;
6424;SDS011;12193;42.642;23.384;2023-03-12T15:01:11;5.00;;;3.00;;
6424;SDS011;12193;42.642;23.384;2023-03-12T15:03:46;3.00;;;2.40;;
6424;SDS011;12193;42.642;23.384;2023-03-12T15:06:19;4.43;;;2.50;;
6424;SDS011;12193;42.642;23.384;2023-03-12T15:08:54;3.40;;;2.27;;
6424;SDS011;12193;42.642;23.384;2023-03-12T15:11:24;5.33;;;2.80;;
6424;SDS011;12193;42.642;23.384;2023-03-12T15:13:56;3.27;;;2.50;;
6424;SDS011;12193;42.642;23.384;2023-03-12T15:16:32;3.77;;;2.50;;
6424;SDS011;12193;42.642;23.384;2023-03-12T15:19:05;4.40;;;2.47;;
6424;SDS011;12193;42.642;23.384;2023-03-12T15:21:37;6.37;;;2.73;;
6424;SDS011;12193;42.642;23.384;2023-03-12T15:24:08;3.80;;;2.43;;
6424;SDS011;12193;42.642;23.384;2023-03-12T15:26:40;3.93;;;2.30;;
6424;SDS011;12193;42.642;23.384;2023-03-12T15:29:18;3.23;;;2.30;;
6424;SDS011;12193;42.642;23.384;2023-03-12T15:31:51;4.07;;;2.77;;
6424;SDS011;12193;42.642;23.384;2023-03-12T15:34:31;3.40;;;2.77;;
6424;SDS011;12193;42.642;23.384;2023-03-12T15:37:02;8.07;;;2.40;;
6424;SDS011;12193;42.642;23.384;2023-03-12T15:39:47;4.67;;;2.83;;
6424;SDS011;12193;42.642;23.384;2023-03-12T15:42:19;4.93;;;2.47;;
6424;SDS011;12193;42.642;23.384;2023-03-12T15:44:50;6.43;;;2.40;;
6424;SDS011;12193;42.642;23.384;2023-03-12T15:47:22;4.43;;;2.40;;
6424;SDS011;12193;42.642;23.384;2023-03-12T15:49:58;3.17;;;2.40;;
6424;SDS011;12193;42.642;23.384;2023-03-12T15:52:32;6.93;;;2.97;;
6424;SDS011;12193;42.642;23.384;2023-03-12T15:55:04;5.23;;;2.93;;
6424;SDS011;12193;42.642;23.384;2023-03-12T15:57:49;3.07;;;2.30;;
6424;SDS011;12193;42.642;23.384;2023-03-12T16:00:22;2.87;;;2.20;;
6424;SDS011;12193;42.642;23.384;2023-03-12T16:02:55;5.30;;;2.90;;
6424;SDS011;12193;42.642;23.384;2023-03-12T16:05:29;6.67;;;3.43;;
6424;SDS011;12193;42.642;23.384;2023-03-12T16:07:59;4.20;;;2.73;;
6424;SDS011;12193;42.642;23.384;2023-03-12T16:10:30;5.53;;;3.00;;
6424;SDS011;12193;42.642;23.384;2023-03-12T16:13:03;3.63;;;2.73;;
6424;SDS011;12193;42.642;23.384;2023-03-12T16:15:35;3.97;;;2.70;;
6424;SDS011;12193;42.642;23.384;2023-03-12T16:18:08;4.70;;;2.80;;
6424;SDS011;12193;42.642;23.384;2023-03-12T16:20:43;6.50;;;2.77;;
6424;SDS011;12193;42.642;23.384;2023-03-12T16:23:13;4.77;;;2.60;;
6424;SDS011;12193;42.642;23.384;2023-03-12T16:25:44;3.50;;;2.63;;
6424;SDS011;12193;42.642;23.384;2023-03-12T16:28:15;4.43;;;2.90;;
6424;SDS011;12193;42.642;23.384;2023-03-12T16:30:49;5.00;;;2.90;;
6424;SDS011;12193;42.642;23.384;2023-03-12T16:33:19;5.30;;;2.90;;
6424;SDS011;12193;42.642;23.384;2023-03-12T16:35:53;6.00;;;3.23;;
6424;SDS011;12193;42.642;23.384;2023-03-12T16:38:22;11.43;;;6.33;;
6424;SDS011;12193;42.642;23.384;2023-03-12T16:40:52;6.80;;;3.20;;
6424;SDS011;12193;42.642;23.384;2023-03-12T16:43:22;4.53;;;3.10;;
6424;SDS011;12193;42.642;23.384;2023-03-12T16:45:54;4.47;;;2.47;;
6424;SDS011;12193;42.642;23.384;2023-03-12T16:48:24;4.60;;;2.80;;
6424;SDS011;12193;42.642;23.384;2023-03-12T16:50:56;3.57;;;2.60;;
6424;SDS011;12193;42.642;23.384;2023-03-12T16:53:25;5.90;;;2.50;;
6424;SDS011;12193;42.642;23.384;2023-03-12T16:55:55;4.03;;;2.67;;
6424;SDS011;12193;42.642;23.384;2023-03-12T16:58:26;4.57;;;2.60;;
6424;SDS011;12193;42.642;23.384;2023-03-12T17:00:58;5.47;;;2.90;;
6424;SDS011;12193;42.642;23.384;2023-03-12T17:03:29;5.73;;;2.80;;
6424;SDS011;12193;42.642;23.384;2023-03-12T17:06:04;4.37;;;2.70;;
6424;SDS011;12193;42.642;23.384;2023-03-12T17:08:34;4.70;;;3.03;;
6424;SDS011;12193;42.642;23.384;2023-03-12T17:11:05;3.13;;;2.60;;
6424;SDS011;12193;42.642;23.384;2023-03-12T17:13:41;5.17;;;3.10;;
6424;SDS011;12193;42.642;23.384;2023-03-12T17:16:12;3.90;;;2.63;;
6424;SDS011;12193;42.642;23.384;2023-03-12T17:18:41;3.10;;;2.47;;
6424;SDS011;12193;42.642;23.384;2023-03-12T17:21:14;3.97;;;2.80;;
6424;SDS011;12193;42.642;23.384;2023-03-12T17:23:45;5.17;;;2.93;;
6424;SDS011;12193;42.642;23.384;2023-03-12T17:26:15;4.37;;;2.80;;
6424;SDS011;12193;42.642;23.384;2023-03-12T17:28:45;5.23;;;3.30;;
6424;SDS011;12193;42.642;23.384;2023-03-12T17:31:14;5.23;;;3.27;;
6424;SDS011;12193;42.642;23.384;2023-03-12T17:33:44;5.17;;;3.30;;
6424;SDS011;12193;42.642;23.384;2023-03-12T17:36:16;5.67;;;3.10;;
6424;SDS011;12193;42.642;23.384;2023-03-12T17:38:45;5.33;;;2.90;;
6424;SDS011;12193;42.642;23.384;2023-03-12T17:41:15;5.40;;;3.07;;
6424;SDS011;12193;42.642;23.384;2023-03-12T17:43:44;5.93;;;3.10;;
6424;SDS011;12193;42.642;23.384;2023-03-12T17:46:13;8.17;;;3.10;;
6424;SDS011;12193;42.642;23.384;2023-03-12T17:48:43;5.10;;;3.13;;
6424;SDS011;12193;42.642;23.384;2023-03-12T17:51:12;5.70;;;3.47;;
6424;SDS011;12193;42.642;23.384;2023-03-12T17:53:44;4.93;;;2.83;;
6424;SDS011;12193;42.642;23.384;2023-03-12T17:56:14;5.60;;;3.33;;
6424;SDS011;12193;42.642;23.384;2023-03-12T17:58:43;3.90;;;2.90;;
6424;SDS011;12193;42.642;23.384;2023-03-12T18:01:13;5.00;;;3.47;;
6424;SDS011;12193;42.642;23.384;2023-03-12T18:03:43;5.87;;;3.13;;
6424;SDS011;12193;42.642;23.384;2023-03-12T18:06:13;4.37;;;3.17;;
6424;SDS011;12193;42.642;23.384;2023-03-12T18:08:44;5.20;;;3.20;;
6424;SDS011;12193;42.642;23.384;2023-03-12T18:11:14;4.90;;;3.00;;
6424;SDS011;12193;42.642;23.384;2023-03-12T18:13:45;5.43;;;3.33;;
6424;SDS011;12193;42.642;23.384;2023-03-12T18:16:14;5.50;;;3.43;;
6424;SDS011;12193;42.642;23.384;2023-03-12T18:18:44;4.70;;;3.10;;
6424;SDS011;12193;42.642;23.384;2023-03-12T18:21:13;5.37;;;3.47;;
6424;SDS011;12193;42.642;23.384;2023-03-12T18:23:45;4.57;;;3.37;;
6424;SDS011;12193;42.642;23.384;2023-03-12T18:26:15;11.03;;;3.67;;